createdAt,value
2023-04-22T00:00:14.081Z,23.70
2023-04-22T00:02:42.643Z,25.50
2023-04-22T00:05:15.656Z,23.50
2023-04-22T00:07:45.263Z,18.50
2023-04-22T00:10:13.317Z,20.30
2023-04-22T00:12:41.562Z,17.80
2023-04-22T00:15:10.989Z,29.00
2023-04-22T00:17:40.286Z,26.40
2023-04-22T00:20:10.913Z,24.60
2023-04-22T00:22:38.909Z,24.10
2023-04-22T00:25:10.135Z,23.10
2023-04-22T00:27:38.331Z,26.70
2023-04-22T00:30:07.300Z,24.10
2023-04-22T00:32:35.575Z,22.00
2023-04-22T00:35:03.970Z,21.10
2023-04-22T00:37:32.190Z,20.60
2023-04-22T00:40:00.290Z,30.60
2023-04-22T00:42:28.379Z,30.70
2023-04-22T00:44:56.387Z,22.40
2023-04-22T00:47:27.083Z,23.70
2023-04-22T00:49:55.393Z,25.60
2023-04-22T00:52:23.476Z,19.60
2023-04-22T00:54:52.376Z,28.30
2023-04-22T00:57:21.012Z,24.20
2023-04-22T00:59:49.093Z,18.70
2023-04-22T01:02:19.874Z,26.80
2023-04-22T01:04:48.448Z,24.90
2023-04-22T01:07:16.762Z,22.40
2023-04-22T01:09:44.902Z,30.20
2023-04-22T01:12:12.925Z,25.50
2023-04-22T01:14:41.709Z,30.00
2023-04-22T01:17:10.948Z,21.60
2023-04-22T01:19:39.365Z,23.90
2023-04-22T01:22:08.555Z,27.80
2023-04-22T01:24:39.914Z,22.40
2023-04-22T01:27:08.462Z,24.00
2023-04-22T01:29:38.171Z,28.80
2023-04-22T01:32:06.705Z,19.40
2023-04-22T01:34:35.341Z,23.00
2023-04-22T01:37:03.281Z,23.50
2023-04-22T01:39:31.378Z,22.60
2023-04-22T01:41:59.748Z,23.90
2023-04-22T01:44:27.876Z,23.90
2023-04-22T01:46:55.992Z,23.30
2023-04-22T01:49:24.177Z,19.90
2023-04-22T01:51:52.247Z,21.30
2023-04-22T01:54:21.747Z,27.30
2023-04-22T01:56:53.084Z,21.10
2023-04-22T01:59:21.727Z,23.70
2023-04-22T02:01:50.606Z,30.70
2023-04-22T02:04:19.221Z,22.60
2023-04-22T02:06:47.348Z,28.30
2023-04-22T02:09:15.717Z,20.50
2023-04-22T02:11:44.089Z,24.80
2023-04-22T02:14:13.488Z,25.10
2023-04-22T02:16:42.485Z,19.40
2023-04-22T02:19:11.074Z,26.90
2023-04-22T02:21:39.863Z,23.00
2023-04-22T02:24:08.097Z,19.00
2023-04-22T02:26:36.083Z,26.40
2023-04-22T02:29:04.047Z,23.50
2023-04-22T02:31:32.062Z,21.40
2023-04-22T02:34:00.313Z,28.30
2023-04-22T02:36:28.887Z,20.00
2023-04-22T02:38:57.102Z,23.60
2023-04-22T02:41:25.143Z,22.90
2023-04-22T02:43:53.308Z,29.80
2023-04-22T02:46:21.458Z,25.90
2023-04-22T02:48:49.921Z,20.40
2023-04-22T02:51:18.572Z,19.80
2023-04-22T02:53:46.623Z,20.60
2023-04-22T02:56:14.773Z,21.20
2023-04-22T02:58:45.016Z,24.00
2023-04-22T03:01:12.994Z,24.70
2023-04-22T03:03:41.565Z,28.00
2023-04-22T03:06:11.363Z,27.90
2023-04-22T03:08:39.857Z,23.30
2023-04-22T03:11:07.873Z,24.40
2023-04-22T03:15:10.911Z,25.20
2023-04-22T03:17:38.996Z,20.30
2023-04-22T03:20:11.710Z,21.20
2023-04-22T03:22:39.861Z,22.60
2023-04-22T03:25:10.886Z,31.20
2023-04-22T03:27:39.189Z,20.70
2023-04-22T03:30:08.189Z,19.80
2023-04-22T03:32:36.501Z,17.30
2023-04-22T03:35:16.599Z,17.90
2023-04-22T03:37:45.458Z,17.10
2023-04-22T03:40:13.996Z,18.00
2023-04-22T03:42:42.868Z,18.10
2023-04-22T03:45:11.223Z,20.00
2023-04-22T03:47:42.541Z,15.90
2023-04-22T03:50:18.429Z,16.30
2023-04-22T03:52:46.717Z,17.50
2023-04-22T03:55:17.516Z,19.20
2023-04-22T03:57:46.042Z,16.40
2023-04-22T04:00:14.427Z,17.70
2023-04-22T04:02:42.820Z,21.80
2023-04-22T04:05:12.840Z,12.30
2023-04-22T04:07:43.918Z,15.60
2023-04-22T04:10:12.031Z,13.80
2023-04-22T04:12:40.122Z,13.10
2023-04-22T04:15:09.136Z,18.30
2023-04-22T04:17:37.284Z,15.60
2023-04-22T04:20:07.210Z,14.70
2023-04-22T04:22:36.164Z,13.80
2023-04-22T04:25:06.994Z,11.80
2023-04-22T04:27:39.557Z,12.20
2023-04-22T04:30:09.782Z,14.20
2023-04-22T04:32:45.655Z,13.30
2023-04-22T04:35:16.353Z,14.90
2023-04-22T04:37:47.996Z,13.50
2023-04-22T04:40:16.394Z,14.30
2023-04-22T04:42:53.211Z,14.20
2023-04-22T04:45:24.352Z,13.00
2023-04-22T04:47:55.264Z,14.60
2023-04-22T04:50:28.158Z,10.60
2023-04-22T04:52:58.204Z,13.40
2023-04-22T04:55:31.814Z,13.40
2023-04-22T04:58:00.604Z,14.60
2023-04-22T05:00:29.229Z,10.70
2023-04-22T05:02:57.551Z,14.70
2023-04-22T05:05:25.668Z,13.00
2023-04-22T05:07:53.948Z,15.10
2023-04-22T05:10:22.148Z,13.60
2023-04-22T05:12:51.239Z,9.80
2023-04-22T05:15:22.636Z,12.10
2023-04-22T05:17:50.728Z,15.00
2023-04-22T05:20:18.811Z,14.20
2023-04-22T05:22:47.035Z,15.20
2023-04-22T05:25:16.333Z,11.60
2023-04-22T05:27:51.491Z,9.50
2023-04-22T05:30:19.803Z,11.40
2023-04-22T05:32:47.810Z,12.80
2023-04-22T05:35:16.216Z,16.10
2023-04-22T05:37:44.225Z,12.90
2023-04-22T05:40:12.351Z,13.60
2023-04-22T05:42:40.800Z,15.00
2023-04-22T05:45:09.257Z,14.00
2023-04-22T05:47:39.131Z,14.80
2023-04-22T05:50:08.019Z,11.00
2023-04-22T05:52:41.938Z,11.00
2023-04-22T05:55:15.278Z,11.90
2023-04-22T05:57:44.403Z,12.90
2023-04-22T06:00:23.299Z,10.90
2023-04-22T06:02:58.202Z,15.00
2023-04-22T06:05:26.517Z,12.40
2023-04-22T06:07:54.751Z,13.70
2023-04-22T06:10:22.817Z,11.10
2023-04-22T06:12:51.026Z,14.00
2023-04-22T06:15:19.060Z,13.60
2023-04-22T06:17:48.697Z,13.00
2023-04-22T06:20:16.735Z,13.10
2023-04-22T06:22:45.190Z,12.50
2023-04-22T06:25:13.407Z,12.50
2023-04-22T06:27:41.377Z,9.50
2023-04-22T06:30:11.697Z,11.50
2023-04-22T06:32:40.991Z,10.80
2023-04-22T06:35:09.160Z,11.40
2023-04-22T06:37:37.210Z,12.10
2023-04-22T06:40:08.019Z,9.40
2023-04-22T06:42:56.730Z,11.70
2023-04-22T06:45:42.358Z,13.10
2023-04-22T06:48:35.700Z,14.20
2023-04-22T06:51:14.536Z,13.40
2023-04-22T06:53:42.545Z,14.70
2023-04-22T06:56:12.645Z,12.10
2023-04-22T06:58:40.570Z,12.10
2023-04-22T07:01:08.619Z,16.20
2023-04-22T07:03:37.490Z,11.90
2023-04-22T07:06:09.652Z,14.70
2023-04-22T07:08:37.828Z,13.30
2023-04-22T07:11:05.915Z,12.30
2023-04-22T07:14:03.362Z,13.30
2023-04-22T07:16:31.384Z,13.90
2023-04-22T07:18:59.716Z,11.50
2023-04-22T07:21:27.771Z,13.40
2023-04-22T07:23:55.686Z,15.20
2023-04-22T07:26:23.913Z,11.40
2023-04-22T07:28:51.988Z,12.80
2023-04-22T07:31:21.129Z,10.50
2023-04-22T07:33:49.683Z,15.70
2023-04-22T07:36:17.684Z,15.60
2023-04-22T07:38:45.741Z,12.80
2023-04-22T07:41:14.908Z,14.40
2023-04-22T07:43:45.141Z,15.30
2023-04-22T07:46:13.235Z,18.00
2023-04-22T07:48:41.624Z,14.80
2023-04-22T07:51:09.616Z,12.00
2023-04-22T07:53:37.581Z,14.10
2023-04-22T07:56:05.671Z,9.60
2023-04-22T07:58:33.759Z,11.70
2023-04-22T08:01:02.000Z,15.60
2023-04-22T08:03:30.333Z,17.50
2023-04-22T08:05:58.535Z,12.70
2023-04-22T08:08:26.629Z,11.60
2023-04-22T08:10:54.501Z,12.70
2023-04-22T08:13:22.503Z,10.00
2023-04-22T08:15:50.586Z,11.20
2023-04-22T08:18:18.544Z,10.60
2023-04-22T08:20:47.864Z,11.40
2023-04-22T08:23:15.841Z,10.20
2023-04-22T08:25:43.794Z,13.80
2023-04-22T08:28:11.732Z,20.50
2023-04-22T08:30:39.816Z,14.20
2023-04-22T08:33:07.741Z,11.00
2023-04-22T08:35:36.131Z,10.80
2023-04-22T08:38:04.046Z,14.00
2023-04-22T08:40:32.258Z,9.60
2023-04-22T08:43:00.307Z,8.70
2023-04-22T08:45:28.186Z,16.60
2023-04-22T08:47:56.237Z,10.40
2023-04-22T08:50:25.374Z,8.40
2023-04-22T08:52:53.670Z,9.80
2023-04-22T08:55:21.546Z,10.10
2023-04-22T08:57:50.384Z,10.90
2023-04-22T09:00:19.602Z,8.50
2023-04-22T09:02:48.432Z,10.70
2023-04-22T09:05:16.673Z,9.50
2023-04-22T09:07:46.151Z,7.30
2023-04-22T09:10:14.066Z,9.20
2023-04-22T09:12:42.128Z,7.70
2023-04-22T09:15:11.141Z,8.70
2023-04-22T09:17:39.413Z,8.50
2023-04-22T09:20:08.962Z,7.60
2023-04-22T09:22:45.392Z,7.30
2023-04-22T09:25:20.891Z,8.70
2023-04-22T09:27:58.728Z,9.40
2023-04-22T09:30:31.009Z,9.40
2023-04-22T09:33:01.295Z,19.50
2023-04-22T09:35:31.764Z,9.00
2023-04-22T09:38:01.236Z,9.70
2023-04-22T09:40:30.256Z,8.50
2023-04-22T09:43:00.717Z,9.30
2023-04-22T09:45:29.974Z,9.20
2023-04-22T09:48:01.162Z,8.20
2023-04-22T09:50:29.437Z,7.40
2023-04-22T09:53:00.278Z,13.30
2023-04-22T09:57:57.582Z,8.90
2023-04-22T10:00:28.549Z,8.20
2023-04-22T10:02:57.221Z,7.70
2023-04-22T10:05:25.560Z,12.60
2023-04-22T10:07:53.688Z,6.90
2023-04-22T10:10:21.803Z,10.50
2023-04-22T10:12:49.954Z,8.80
2023-04-22T10:15:18.012Z,6.80
2023-04-22T10:17:46.335Z,6.70
2023-04-22T10:20:16.906Z,8.00
2023-04-22T10:22:45.437Z,7.00
2023-04-22T10:25:24.646Z,9.80
2023-04-22T10:28:06.328Z,10.50
2023-04-22T10:30:36.710Z,8.70
2023-04-22T10:33:31.488Z,7.50
2023-04-22T10:36:15.340Z,11.10
2023-04-22T10:38:55.771Z,7.40
2023-04-22T10:41:32.077Z,6.00
2023-04-22T10:44:09.213Z,8.40
2023-04-22T10:46:40.348Z,9.10
2023-04-22T10:49:18.358Z,9.20
2023-04-22T10:51:47.934Z,9.10
2023-04-22T10:54:37.156Z,8.10
2023-04-22T10:57:11.940Z,7.80
2023-04-22T10:59:50.397Z,11.40
2023-04-22T11:02:19.256Z,8.20
2023-04-22T11:04:47.894Z,7.20
2023-04-22T11:07:28.012Z,8.90
2023-04-22T11:10:01.667Z,40.90
2023-04-22T11:12:35.954Z,8.50
2023-04-22T11:15:13.918Z,7.10
2023-04-22T11:17:43.822Z,8.10
2023-04-22T11:20:13.065Z,8.30
2023-04-22T11:22:42.817Z,6.50
2023-04-22T11:25:10.922Z,5.60
2023-04-22T11:27:39.699Z,6.30
2023-04-22T11:30:09.238Z,9.40
2023-04-22T11:32:39.130Z,7.50
2023-04-22T11:35:11.843Z,7.60
2023-04-22T11:37:50.770Z,7.40
2023-04-22T11:40:32.081Z,12.00
2023-04-22T11:43:02.502Z,6.90
2023-04-22T11:45:32.487Z,8.10
2023-04-22T11:48:01.060Z,6.80
2023-04-22T11:50:40.351Z,10.70
2023-04-22T11:53:21.184Z,7.00
2023-04-22T11:55:53.600Z,8.70
2023-04-22T11:58:27.196Z,10.10
2023-04-22T12:00:56.397Z,6.70
2023-04-22T12:03:25.966Z,10.60
2023-04-22T12:06:00.417Z,5.90
2023-04-22T12:08:33.528Z,9.10
2023-04-22T12:11:04.019Z,7.30
2023-04-22T12:13:38.968Z,7.20
2023-04-22T12:16:14.464Z,11.00
2023-04-22T12:18:49.841Z,10.30
2023-04-22T12:21:20.288Z,8.60
2023-04-22T12:23:57.309Z,9.60
2023-04-22T12:26:28.801Z,6.20
2023-04-22T12:28:58.221Z,11.20
2023-04-22T12:31:26.915Z,10.50
2023-04-22T12:33:55.039Z,9.70
2023-04-22T12:36:23.681Z,11.70
2023-04-22T12:38:51.755Z,8.70
2023-04-22T12:41:19.706Z,9.40
2023-04-22T12:43:47.982Z,13.40
2023-04-22T12:46:16.531Z,12.00
2023-04-22T12:48:44.967Z,7.00
2023-04-22T12:51:13.005Z,10.30
2023-04-22T12:53:40.927Z,11.00
2023-04-22T12:56:08.948Z,10.10
2023-04-22T12:58:37.083Z,9.10
2023-04-22T13:01:05.253Z,5.90
2023-04-22T13:03:36.823Z,8.30
2023-04-22T13:06:04.932Z,10.80
2023-04-22T13:08:33.026Z,8.70
2023-04-22T13:11:01.023Z,8.30
2023-04-22T13:13:29.797Z,6.30
2023-04-22T13:15:57.811Z,6.10
2023-04-22T13:18:25.925Z,7.10
2023-04-22T13:20:56.885Z,20.50
2023-04-22T13:23:26.001Z,6.30
2023-04-22T13:25:54.296Z,7.60
2023-04-22T13:28:22.241Z,6.10
2023-04-22T13:30:50.269Z,4.90
2023-04-22T13:33:18.850Z,5.70
2023-04-22T13:35:46.926Z,5.30
2023-04-22T13:38:15.612Z,9.40
2023-04-22T13:40:43.675Z,10.00
2023-04-22T13:43:11.737Z,8.60
2023-04-22T13:45:40.879Z,6.80
2023-04-22T13:48:09.030Z,10.80
2023-04-22T13:50:37.230Z,9.00
2023-04-22T13:53:09.962Z,5.70
2023-04-22T13:55:38.607Z,12.50
2023-04-22T13:58:07.787Z,9.30
2023-04-22T14:00:36.021Z,8.00
2023-04-22T14:03:04.246Z,9.30
2023-04-22T14:05:32.498Z,8.20
2023-04-22T14:08:03.737Z,9.00
2023-04-22T14:12:59.773Z,8.60
2023-04-22T14:15:27.817Z,8.00
2023-04-22T14:17:55.882Z,6.50
2023-04-22T14:20:25.340Z,8.60
2023-04-22T14:22:53.283Z,5.30
2023-04-22T14:25:21.270Z,6.30
2023-04-22T14:27:50.901Z,4.50
2023-04-22T14:30:20.282Z,5.50
2023-04-22T14:32:49.142Z,8.00
2023-04-22T14:35:18.051Z,12.10
2023-04-22T14:37:48.978Z,11.30
2023-04-22T14:40:17.507Z,7.30
2023-04-22T14:42:45.870Z,6.90
2023-04-22T14:45:14.799Z,6.10
2023-04-22T14:47:44.457Z,6.80
2023-04-22T14:50:12.486Z,8.90
2023-04-22T14:52:41.061Z,7.40
2023-04-22T14:55:21.884Z,7.50
2023-04-22T14:57:53.947Z,8.50
2023-04-22T15:00:22.001Z,6.60
2023-04-22T15:02:50.433Z,7.90
2023-04-22T15:05:18.559Z,8.60
2023-04-22T15:07:46.773Z,10.70
2023-04-22T15:10:15.225Z,11.70
2023-04-22T15:12:44.349Z,7.20
2023-04-22T15:15:16.881Z,11.10
2023-04-22T15:17:45.093Z,6.30
2023-04-22T15:20:13.318Z,8.40
2023-04-22T15:23:19.918Z,7.00
2023-04-22T15:25:47.649Z,4.80
2023-04-22T15:28:15.682Z,5.30
2023-04-22T15:32:19.010Z,11.30
2023-04-22T15:34:47.167Z,5.70
2023-04-22T15:37:16.235Z,16.20
2023-04-22T15:39:44.144Z,10.80
2023-04-22T15:42:12.085Z,6.50
2023-04-22T15:44:40.682Z,8.20
2023-04-22T15:47:09.688Z,12.00
2023-04-22T15:49:40.761Z,11.40
2023-04-22T15:52:09.357Z,8.90
2023-04-22T15:54:38.038Z,19.50
2023-04-22T15:57:06.056Z,9.30
2023-04-22T15:59:33.947Z,6.30
2023-04-22T16:02:02.040Z,8.60
2023-04-22T16:04:30.348Z,9.60
2023-04-22T16:06:59.428Z,12.70
2023-04-22T16:09:27.830Z,9.00
2023-04-22T16:11:56.913Z,11.10
2023-04-22T16:14:24.941Z,12.00
2023-04-22T16:16:53.176Z,9.90
2023-04-22T16:19:21.820Z,18.80
2023-04-22T16:21:50.455Z,14.60
2023-04-22T16:24:18.364Z,10.90
2023-04-22T16:26:46.312Z,14.50
2023-04-22T16:29:14.246Z,15.20
2023-04-22T16:31:42.183Z,10.10
2023-04-22T16:34:10.172Z,11.80
2023-04-22T16:36:38.455Z,15.80
2023-04-22T16:39:06.924Z,16.90
2023-04-22T16:41:36.296Z,18.10
2023-04-22T16:44:04.275Z,13.60
2023-04-22T16:46:32.375Z,13.30
2023-04-22T16:49:00.349Z,13.20
2023-04-22T16:51:28.528Z,9.20
2023-04-22T16:53:56.606Z,15.70
2023-04-22T16:56:24.604Z,13.90
2023-04-22T16:58:52.635Z,13.50
2023-04-22T17:01:20.699Z,10.30
2023-04-22T17:06:16.774Z,9.20
2023-04-22T17:08:44.666Z,9.80
2023-04-22T17:11:12.645Z,12.30
2023-04-22T17:13:40.894Z,14.20
2023-04-22T17:16:11.080Z,27.70
2023-04-22T17:18:39.299Z,20.90
2023-04-22T17:21:07.382Z,29.10
2023-04-22T17:23:35.993Z,35.10
2023-04-22T17:26:03.922Z,29.30
2023-04-22T17:28:32.665Z,31.10
2023-04-22T17:31:00.804Z,22.20
2023-04-22T17:33:30.220Z,30.30
2023-04-22T17:36:12.006Z,25.20
2023-04-22T17:38:41.499Z,26.40
2023-04-22T17:41:09.469Z,33.50
2023-04-22T17:43:38.607Z,28.10
2023-04-22T17:46:06.573Z,38.10
2023-04-22T17:48:36.659Z,21.80
2023-04-22T17:51:06.565Z,25.10
2023-04-22T17:53:34.617Z,22.00
2023-04-22T17:56:02.629Z,12.30
2023-04-22T17:58:30.631Z,16.60
2023-04-22T18:00:59.625Z,15.00
2023-04-22T18:03:27.947Z,14.00
2023-04-22T18:05:56.155Z,14.80
2023-04-22T18:08:24.692Z,16.20
2023-04-22T18:10:54.072Z,42.70
2023-04-22T18:13:25.363Z,30.60
2023-04-22T18:15:53.451Z,30.50
2023-04-22T18:18:21.712Z,18.70
2023-04-22T18:20:51.241Z,19.40
2023-04-22T18:23:19.696Z,29.10
2023-04-22T18:25:48.097Z,24.20
2023-04-22T18:28:16.257Z,14.80
2023-04-22T18:30:44.344Z,22.60
2023-04-22T18:33:12.299Z,18.00
2023-04-22T18:35:42.123Z,18.80
2023-04-22T18:38:10.106Z,14.20
2023-04-22T18:40:38.088Z,10.80
2023-04-22T18:43:12.775Z,15.20
2023-04-22T18:45:41.366Z,13.10
2023-04-22T18:48:09.313Z,13.90
2023-04-22T18:50:37.539Z,12.10
2023-04-22T18:53:05.571Z,16.40
2023-04-22T18:55:33.626Z,15.60
2023-04-22T18:58:01.563Z,13.20
2023-04-22T19:00:29.687Z,13.50
2023-04-22T19:02:57.657Z,9.90
2023-04-22T19:05:25.686Z,18.10
2023-04-22T19:07:54.056Z,12.20
2023-04-22T19:10:22.194Z,13.10
2023-04-22T19:12:51.375Z,15.50
2023-04-22T19:15:22.178Z,16.00
2023-04-22T19:17:50.439Z,15.00
2023-04-22T19:20:18.616Z,10.90
2023-04-22T19:22:46.614Z,15.80
2023-04-22T19:25:14.513Z,14.00
2023-04-22T19:27:42.990Z,7.80
2023-04-22T19:30:11.880Z,11.60
2023-04-22T19:32:40.859Z,10.90
2023-04-22T19:35:12.596Z,15.50
2023-04-22T19:37:41.552Z,9.30
2023-04-22T19:40:09.880Z,10.50
2023-04-22T19:42:39.427Z,12.40
2023-04-22T19:45:09.429Z,12.20
2023-04-22T19:47:38.612Z,13.90
2023-04-22T19:50:08.159Z,9.70
2023-04-22T19:52:36.402Z,7.80
2023-04-22T19:55:08.986Z,12.90
2023-04-22T19:57:37.349Z,14.60
2023-04-22T20:00:07.763Z,10.70
2023-04-22T20:02:44.784Z,12.40
2023-04-22T20:05:13.491Z,11.00
2023-04-22T20:07:42.040Z,9.60
2023-04-22T20:10:10.318Z,9.20
2023-04-22T20:12:39.913Z,12.20
2023-04-22T20:15:09.592Z,13.70
2023-04-22T20:17:39.279Z,11.30
2023-04-22T20:20:12.950Z,10.40
2023-04-22T20:22:42.356Z,8.70
2023-04-22T20:25:14.962Z,10.20
2023-04-22T20:27:44.366Z,8.60
2023-04-22T20:30:13.927Z,8.10
2023-04-22T20:32:42.653Z,12.00
2023-04-22T20:35:14.966Z,8.30
2023-04-22T20:37:46.261Z,8.40
2023-04-22T20:40:15.749Z,13.50
2023-04-22T20:42:46.916Z,9.60
2023-04-22T20:45:15.968Z,9.80
2023-04-22T20:47:45.811Z,10.60
2023-04-22T20:50:14.014Z,10.90
2023-04-22T20:52:43.482Z,6.80
2023-04-22T20:55:11.429Z,12.00
2023-04-22T20:57:39.512Z,7.80
2023-04-22T21:00:08.286Z,9.00
2023-04-22T21:02:37.117Z,14.90
2023-04-22T21:05:06.869Z,8.00
2023-04-22T21:07:36.044Z,12.50
2023-04-22T21:10:04.582Z,12.30
2023-04-22T21:12:33.227Z,7.50
2023-04-22T21:15:01.590Z,9.50
2023-04-22T21:17:30.975Z,9.70
2023-04-22T21:19:58.928Z,8.20
2023-04-22T21:22:27.471Z,8.40
2023-04-22T21:24:55.771Z,8.60
2023-04-22T21:27:24.430Z,9.30
2023-04-22T21:29:52.608Z,12.20
2023-04-22T21:32:21.082Z,6.70
2023-04-22T21:34:49.898Z,7.40
2023-04-22T21:37:17.842Z,7.20
2023-04-22T21:39:47.285Z,7.00
2023-04-22T21:42:15.216Z,8.80
2023-04-22T21:44:49.518Z,11.20
2023-04-22T21:47:17.722Z,8.40
2023-04-22T21:49:47.099Z,7.40
2023-04-22T21:52:15.404Z,10.70
2023-04-22T21:54:43.910Z,9.10
2023-04-22T21:57:12.057Z,7.70
2023-04-22T21:59:40.338Z,11.20
2023-04-22T22:02:08.273Z,8.70
2023-04-22T22:04:36.460Z,8.60
2023-04-22T22:07:04.686Z,16.40
2023-04-22T22:09:33.013Z,10.00
2023-04-22T22:12:01.916Z,10.50
2023-04-22T22:14:30.131Z,9.30
2023-04-22T22:16:58.203Z,9.90
2023-04-22T22:19:27.802Z,10.60
2023-04-22T22:21:56.307Z,8.10
2023-04-22T22:24:24.314Z,12.10
2023-04-22T22:26:52.276Z,8.60
2023-04-22T22:29:20.239Z,9.30
2023-04-22T22:31:48.344Z,6.80
2023-04-22T22:34:16.662Z,9.70
2023-04-22T22:36:44.593Z,9.70
2023-04-22T22:39:14.626Z,9.40
2023-04-22T22:41:44.071Z,9.40
2023-04-22T22:44:12.416Z,13.10
2023-04-22T22:46:40.790Z,6.20
2023-04-22T22:49:09.368Z,9.60
2023-04-22T22:51:37.605Z,10.70
2023-04-22T22:54:05.807Z,10.70
2023-04-22T22:56:33.993Z,6.50
2023-04-22T22:59:01.923Z,9.50
2023-04-22T23:01:30.532Z,7.40
2023-04-22T23:03:59.012Z,8.90
2023-04-22T23:06:27.376Z,11.00
2023-04-22T23:08:55.489Z,8.60
2023-04-22T23:11:23.670Z,10.80
2023-04-22T23:13:52.035Z,11.50
2023-04-22T23:16:21.075Z,11.00
2023-04-22T23:18:49.181Z,12.90
2023-04-22T23:21:17.263Z,8.30
2023-04-22T23:23:45.525Z,7.70
2023-04-22T23:26:14.011Z,13.30
2023-04-22T23:28:42.382Z,9.80
2023-04-22T23:31:10.762Z,6.30
2023-04-22T23:33:40.452Z,11.00
2023-04-22T23:36:09.341Z,11.20
2023-04-22T23:38:37.900Z,9.60
2023-04-22T23:41:06.505Z,8.00
2023-04-22T23:43:35.227Z,13.20
2023-04-22T23:46:03.348Z,9.20
2023-04-22T23:48:33.825Z,7.70
2023-04-22T23:51:01.789Z,9.30
2023-04-22T23:53:29.919Z,11.60
2023-04-22T23:55:58.597Z,7.00
2023-04-22T23:58:26.818Z,11.40
